Flight Number: EUR1092 Duration: 1:30
Departure: Milano Linate (LIML) at 08:30 Distance: 510 Nm
Arrival: Gatwick Airport (EGKK) at 10:00 Equipment: MD-81

Weather Information
Milano / Linate, Italy (LIML) 45-26N 009-17E 103M Feb 19, 2018 - 02:20 AM EST / 2018.02.19 0720 UTC
Wind: from the NNE (020 degrees) at 5 MPH (4 KT) (direction variable):0
Visibility: 5 mile(s):0
Sky conditions: mostly cloudy Temperature: 41 F (5 C) Dew Point: 30 F (-1 C) Relative Humidity: 65% Pressure (altimeter): 30.09 in. Hg (1019 hPa)
ob: LIML 190720Z 02004KT 340V090 9000 FEW020 BKN050 05/M01 Q1019 NOSIG cycle: 7
Sunrise: 06:20 Sunset: 16:52 (UTC)

London / Gatwick Airport, United Kingdom (EGKK) 51-09N 000-11W 0M Feb 19, 2018 - 02:20 AM EST / 2018.02.19 0720 UTC
Wind: from the SW (220 degrees) at 3 MPH (3 KT):0
Visibility: 1 mile(s):0
Sky conditions: overcast Weather: light drizzle Temperature: 44 F (7 C) Dew Point: 44 F (7 C) Relative Humidity: 100% Pressure (altimeter): 30.03 in. Hg (1017 hPa)
ob: EGKK 190720Z 22003KT 3000 -DZ BKN004 OVC021 07/07 Q1017 cycle: 7
Sunrise: 07:08 Sunset: 17:20 (UTC)

TAF:2018/02/19 06:20 TAF EGKK 190458Z 1906/2012 20003KT 4000 -DZ BR BKN006 TEMPO 1906/1910 0300 DZ FG BKN001 TEMPO 1910/2006 RADZ BKN003 BECMG 1912/1915 33010KT

Previous Pireps for this route
Date Aircraft Flight time Fuel used Landing rate On time
2012-08-27MD-8102.2112000-349No
2012-09-23MD-8102.0713658-164No
2012-12-14A32101.4810598-234Yes
2013-03-06A3211.328957-74No
2013-09-02A3211.35117810No
2014-01-02A32101.3910325-265Yes
2014-10-15MD-8101.3510888-386Yes
2015-05-25A32101.5911235-231Yes
2015-08-10MD-8101.3710852-234Yes
2016-03-12MD-8101.4011151-204Yes
2016-10-16MD-811.40120520Charter
2017-08-26MD-812.2890620Charter
2017-08-26MD-812.2890620Charter
(pireps marked green are flown by you)

Route map